ISR726 LHBP-LLBG
Flight info
| Callsign | ISR726 |
|---|---|
| Flight time | 2h 55m |
| Altitude | 35000 |
| Route | FAHAZ DCT KEROP DCT PELOV DCT ESIRI DCT NISVA DCT RODIP DCT BELGI UN131 KULAR UT39 TOMBI DCT IDAKU L35 PIKOG L609 ZUKKO |
| Aircraft | A320/M-SDE2FGHIJ1LORVWY/S |
Departure
| Time | 2026-05-07 14:12 |
|---|---|
| Airport | Budapest Liszt Ferenc International Airport (LHBP) |
Arrival
| Time | 2026-05-07 17:07 |
|---|---|
| Airport | Ben Gurion International Airport (LLBG) |
| Time | Latitude | Longitude | Altitude | Speed | Heading |
|---|---|---|---|---|---|
| 2026-05-07 13:47 | 47.43362 | 19.25839 | 457 ft | 0 kts | 222° |
| 2026-05-07 14:05 | 47.43378 | 19.25860 | 455 ft | 4 kts | 222° |
| 2026-05-07 14:05 | 47.43397 | 19.25887 | 457 ft | 4 kts | 226° |
| 2026-05-07 14:05 | 47.43414 | 19.25917 | 455 ft | 4 kts | 249° |
| 2026-05-07 14:05 | 47.43415 | 19.25944 | 453 ft | 1 kts | 313° |
| 2026-05-07 14:08 | 47.43417 | 19.25941 | 457 ft | 2 kts | 313° |
| 2026-05-07 14:08 | 47.43437 | 19.25909 | 455 ft | 6 kts | 312° |
| 2026-05-07 14:08 | 47.43473 | 19.25849 | 455 ft | 8 kts | 308° |
| 2026-05-07 14:08 | 47.43497 | 19.25791 | 456 ft | 7 kts | 302° |
| 2026-05-07 14:09 | 47.43545 | 19.25707 | 457 ft | 11 kts | 301° |
| 2026-05-07 14:09 | 47.43511 | 19.25612 | 457 ft | 13 kts | 222° |
| 2026-05-07 14:09 | 47.43442 | 19.25519 | 455 ft | 16 kts | 222° |
| 2026-05-07 14:09 | 47.43360 | 19.25409 | 457 ft | 16 kts | 223° |
| 2026-05-07 14:10 | 47.43261 | 19.25279 | 457 ft | 22 kts | 221° |
| 2026-05-07 14:10 | 47.43152 | 19.25135 | 456 ft | 11 kts | 222° |
| 2026-05-07 14:10 | 47.43131 | 19.25107 | 457 ft | 7 kts | 222° |
| 2026-05-07 14:10 | 47.43077 | 19.25034 | 457 ft | 7 kts | 223° |
| 2026-05-07 14:11 | 47.43080 | 19.24970 | 457 ft | 7 kts | 305° |
| 2026-05-07 14:11 | 47.43131 | 19.24888 | 457 ft | 22 kts | 312° |
| 2026-05-07 14:11 | 47.43393 | 19.24461 | 452 ft | 89 kts | 312° |
| 2026-05-07 14:11 | 47.43944 | 19.23575 | 455 ft | 140 kts | 313° |
| 2026-05-07 14:12 | 47.44675 | 19.22376 | 635 ft | 162 kts | 307° |
| 2026-05-07 14:12 | 47.45406 | 19.21174 | 1303 ft | 159 kts | 307° |
| 2026-05-07 14:12 | 47.46170 | 19.19940 | 1959 ft | 162 kts | 308° |
| 2026-05-07 14:12 | 47.46934 | 19.18704 | 2561 ft | 164 kts | 308° |
| 2026-05-07 14:13 | 47.47706 | 19.17448 | 3163 ft | 167 kts | 307° |
| 2026-05-07 14:13 | 47.48484 | 19.16175 | 3770 ft | 172 kts | 305° |
| 2026-05-07 14:13 | 47.49162 | 19.14632 | 4121 ft | 187 kts | 291° |
| 2026-05-07 14:13 | 47.49549 | 19.12710 | 4431 ft | 205 kts | 273° |
| 2026-05-07 14:14 | 47.49483 | 19.10511 | 4783 ft | 226 kts | 255° |
| 2026-05-07 14:14 | 47.48840 | 19.08284 | 5233 ft | 248 kts | 234° |
| 2026-05-07 14:14 | 47.47590 | 19.06473 | 6018 ft | 257 kts | 213° |
| 2026-05-07 14:14 | 47.45936 | 19.05400 | 6884 ft | 264 kts | 199° |
| 2026-05-07 14:15 | 47.44184 | 19.04570 | 7770 ft | 265 kts | 199° |
| 2026-05-07 14:15 | 47.42419 | 19.03738 | 8622 ft | 266 kts | 199° |
| 2026-05-07 14:15 | 47.40653 | 19.02908 | 9407 ft | 267 kts | 199° |
| 2026-05-07 14:15 | 47.38877 | 19.02075 | 10143 ft | 269 kts | 199° |
| 2026-05-07 14:16 | 47.37066 | 19.01146 | 10435 ft | 286 kts | 202° |
| 2026-05-07 14:16 | 47.35160 | 18.99972 | 10572 ft | 307 kts | 204° |
| 2026-05-07 14:16 | 47.33181 | 18.98640 | 10992 ft | 316 kts | 205° |
| 2026-05-07 14:16 | 47.31175 | 18.97243 | 11574 ft | 321 kts | 206° |
| 2026-05-07 14:17 | 47.29178 | 18.95847 | 12186 ft | 324 kts | 206° |
| 2026-05-07 14:17 | 47.27109 | 18.94400 | 12830 ft | 327 kts | 206° |
| 2026-05-07 14:17 | 47.25041 | 18.92963 | 13442 ft | 330 kts | 205° |
| 2026-05-07 14:17 | 47.22951 | 18.91522 | 14025 ft | 333 kts | 205° |
| 2026-05-07 14:18 | 47.20840 | 18.90079 | 14571 ft | 336 kts | 205° |
| 2026-05-07 14:18 | 47.18714 | 18.88637 | 15115 ft | 338 kts | 205° |
| 2026-05-07 14:18 | 47.16568 | 18.87183 | 15669 ft | 341 kts | 205° |
| 2026-05-07 14:18 | 47.14399 | 18.85743 | 16228 ft | 343 kts | 201° |
| 2026-05-07 14:19 | 47.12077 | 18.84885 | 16762 ft | 348 kts | 187° |
| 2026-05-07 14:19 | 47.09643 | 18.84932 | 17251 ft | 355 kts | 173° |
| 2026-05-07 14:19 | 47.07225 | 18.85958 | 17736 ft | 362 kts | 158° |
| 2026-05-07 14:19 | 47.05090 | 18.87893 | 18258 ft | 370 kts | 142° |
| 2026-05-07 14:20 | 47.03302 | 18.90730 | 18762 ft | 379 kts | 130° |
| 2026-05-07 14:20 | 47.02200 | 18.92710 | 19073 ft | 378 kts | 138° |
| 2026-05-07 14:20 | 47.00155 | 18.95097 | 19564 ft | 376 kts | 151° |
| 2026-05-07 14:20 | 46.97878 | 18.96975 | 20073 ft | 376 kts | 156° |
| 2026-05-07 14:21 | 46.95541 | 18.98725 | 20553 ft | 379 kts | 156° |
| 2026-05-07 14:21 | 46.93210 | 19.00576 | 21023 ft | 383 kts | 154° |
| 2026-05-07 14:21 | 46.90925 | 19.02606 | 21487 ft | 387 kts | 151° |
| 2026-05-07 14:21 | 46.88682 | 19.04801 | 21941 ft | 390 kts | 149° |
| 2026-05-07 14:22 | 46.85662 | 19.07799 | 22534 ft | 393 kts | 150° |
| 2026-05-07 14:22 | 46.84152 | 19.09264 | 22802 ft | 395 kts | 150° |
| 2026-05-07 14:22 | 46.81834 | 19.11464 | 23161 ft | 399 kts | 151° |
| 2026-05-07 14:22 | 46.79485 | 19.13654 | 23538 ft | 403 kts | 152° |
| 2026-05-07 14:23 | 46.77106 | 19.15853 | 23882 ft | 406 kts | 152° |
| 2026-05-07 14:23 | 46.74715 | 19.18056 | 24241 ft | 408 kts | 152° |
| 2026-05-07 14:23 | 46.72311 | 19.20273 | 24599 ft | 410 kts | 152° |
| 2026-05-07 14:23 | 46.69903 | 19.22499 | 24948 ft | 411 kts | 152° |
| 2026-05-07 14:24 | 46.67479 | 19.24741 | 25289 ft | 413 kts | 152° |
| 2026-05-07 14:24 | 46.65051 | 19.26987 | 25639 ft | 415 kts | 152° |
| 2026-05-07 14:24 | 46.62608 | 19.29247 | 25981 ft | 417 kts | 152° |
| 2026-05-07 14:24 | 46.60155 | 19.31512 | 26309 ft | 418 kts | 152° |
| 2026-05-07 14:25 | 46.57660 | 19.33811 | 26619 ft | 420 kts | 152° |
| 2026-05-07 14:25 | 46.55179 | 19.36097 | 26898 ft | 423 kts | 152° |
| 2026-05-07 14:25 | 46.52690 | 19.38389 | 27203 ft | 425 kts | 152° |
| 2026-05-07 14:25 | 46.50188 | 19.40693 | 27519 ft | 427 kts | 153° |
| 2026-05-07 14:26 | 46.47672 | 19.43006 | 27837 ft | 429 kts | 153° |
| 2026-05-07 14:26 | 46.45146 | 19.45323 | 28152 ft | 430 kts | 153° |
| 2026-05-07 14:26 | 46.42609 | 19.47646 | 28469 ft | 432 kts | 153° |
| 2026-05-07 14:26 | 46.40065 | 19.49974 | 28787 ft | 433 kts | 153° |
| 2026-05-07 14:27 | 46.37520 | 19.52302 | 29231 ft | 432 kts | 153° |
| 2026-05-07 14:27 | 46.34982 | 19.54623 | 29691 ft | 430 kts | 153° |
| 2026-05-07 14:27 | 46.32454 | 19.56929 | 30130 ft | 429 kts | 153° |
| 2026-05-07 14:27 | 46.29931 | 19.59227 | 30466 ft | 428 kts | 153° |
| 2026-05-07 14:28 | 46.27413 | 19.61517 | 30831 ft | 427 kts | 153° |
| 2026-05-07 14:28 | 46.24900 | 19.63807 | 31198 ft | 426 kts | 153° |
| 2026-05-07 14:28 | 46.22396 | 19.66089 | 31575 ft | 425 kts | 153° |
| 2026-05-07 14:28 | 46.19895 | 19.68360 | 31956 ft | 424 kts | 153° |
| 2026-05-07 14:29 | 46.17403 | 19.70622 | 32341 ft | 423 kts | 153° |
| 2026-05-07 14:29 | 46.14937 | 19.72940 | 32726 ft | 422 kts | 152° |
| 2026-05-07 14:29 | 46.12502 | 19.75303 | 33105 ft | 422 kts | 151° |
| 2026-05-07 14:29 | 46.10083 | 19.77688 | 33478 ft | 421 kts | 151° |
| 2026-05-07 14:30 | 46.07674 | 19.80067 | 33842 ft | 419 kts | 151° |
| 2026-05-07 14:30 | 46.05265 | 19.82430 | 34155 ft | 418 kts | 151° |
| 2026-05-07 14:30 | 46.02855 | 19.84775 | 34412 ft | 418 kts | 152° |
| 2026-05-07 14:30 | 46.00445 | 19.87107 | 34656 ft | 418 kts | 152° |
| 2026-05-07 14:31 | 45.98028 | 19.89439 | 34891 ft | 418 kts | 152° |
| 2026-05-07 14:31 | 45.93158 | 19.94111 | 35007 ft | 426 kts | 152° |
| 2026-05-07 14:32 | 45.88165 | 19.98890 | 35005 ft | 430 kts | 152° |
| 2026-05-07 14:32 | 45.83225 | 20.03634 | 35008 ft | 430 kts | 152° |
| 2026-05-07 14:33 | 45.78222 | 20.08438 | 35008 ft | 430 kts | 151° |
| 2026-05-07 14:33 | 45.73221 | 20.13184 | 35018 ft | 431 kts | 153° |
| 2026-05-07 14:34 | 45.68296 | 20.18161 | 35014 ft | 432 kts | 153° |
| 2026-05-07 14:34 | 45.63098 | 20.22354 | 35017 ft | 433 kts | 150° |
| 2026-05-07 14:35 | 45.58169 | 20.27289 | 35033 ft | 433 kts | 150° |
| 2026-05-07 14:35 | 45.53259 | 20.32262 | 35013 ft | 432 kts | 150° |
| 2026-05-07 14:36 | 45.48267 | 20.36983 | 35027 ft | 430 kts | 152° |
| 2026-05-07 14:36 | 45.43242 | 20.41601 | 35022 ft | 430 kts | 152° |
| 2026-05-07 14:37 | 45.38240 | 20.46258 | 35032 ft | 430 kts | 152° |
| 2026-05-07 14:37 | 45.30758 | 20.53282 | 35017 ft | 429 kts | 152° |
| 2026-05-07 14:38 | 45.25781 | 20.57945 | 35017 ft | 428 kts | 152° |
| 2026-05-07 14:38 | 45.20810 | 20.62582 | 35036 ft | 427 kts | 152° |
| 2026-05-07 14:39 | 45.15839 | 20.67205 | 35038 ft | 427 kts | 152° |
| 2026-05-07 14:39 | 45.10871 | 20.71812 | 35034 ft | 426 kts | 152° |
| 2026-05-07 14:40 | 45.05878 | 20.76437 | 35019 ft | 426 kts | 152° |
| 2026-05-07 14:40 | 45.00920 | 20.81024 | 35024 ft | 426 kts | 152° |
| 2026-05-07 14:41 | 44.95953 | 20.85611 | 35027 ft | 426 kts | 152° |
| 2026-05-07 14:41 | 44.91023 | 20.90268 | 35028 ft | 427 kts | 150° |
| 2026-05-07 14:42 | 44.86135 | 20.95036 | 35029 ft | 427 kts | 150° |
| 2026-05-07 14:42 | 44.81248 | 20.99784 | 35009 ft | 427 kts | 150° |
| 2026-05-07 14:43 | 44.76344 | 21.04514 | 35015 ft | 427 kts | 150° |
| 2026-05-07 14:43 | 44.71439 | 21.09217 | 35025 ft | 427 kts | 150° |
| 2026-05-07 14:44 | 44.66523 | 21.13913 | 35028 ft | 427 kts | 150° |
| 2026-05-07 14:44 | 44.61612 | 21.18605 | 35034 ft | 427 kts | 150° |
| 2026-05-07 14:45 | 44.56691 | 21.23295 | 35023 ft | 428 kts | 150° |
| 2026-05-07 14:45 | 44.51761 | 21.27984 | 35026 ft | 428 kts | 150° |
| 2026-05-07 14:46 | 44.46824 | 21.32673 | 35032 ft | 429 kts | 150° |
| 2026-05-07 14:46 | 44.41884 | 21.37365 | 35044 ft | 429 kts | 150° |
| 2026-05-07 14:47 | 44.36941 | 21.42035 | 35037 ft | 429 kts | 150° |
| 2026-05-07 14:47 | 44.31986 | 21.46696 | 35042 ft | 429 kts | 150° |
| 2026-05-07 14:48 | 44.27073 | 21.51562 | 35058 ft | 431 kts | 148° |
| 2026-05-07 14:48 | 44.22256 | 21.56547 | 35062 ft | 431 kts | 148° |
| 2026-05-07 14:49 | 44.17428 | 21.61502 | 35073 ft | 431 kts | 148° |
| 2026-05-07 14:49 | 44.12572 | 21.66400 | 35058 ft | 431 kts | 149° |
| 2026-05-07 14:50 | 44.07716 | 21.71274 | 35073 ft | 430 kts | 149° |
| 2026-05-07 14:50 | 44.02861 | 21.76140 | 35074 ft | 430 kts | 149° |
| 2026-05-07 14:51 | 43.98010 | 21.80986 | 35081 ft | 429 kts | 149° |
| 2026-05-07 14:51 | 43.93170 | 21.85832 | 35080 ft | 429 kts | 149° |
| 2026-05-07 14:52 | 43.88328 | 21.90676 | 35058 ft | 430 kts | 148° |
| 2026-05-07 14:52 | 43.83465 | 21.95519 | 35061 ft | 431 kts | 149° |
| 2026-05-07 14:53 | 43.78587 | 22.00356 | 35065 ft | 432 kts | 148° |
| 2026-05-07 14:53 | 43.73708 | 22.05200 | 35080 ft | 431 kts | 148° |
| 2026-05-07 14:54 | 43.69622 | 22.09249 | 35084 ft | 431 kts | 149° |
| 2026-05-07 14:54 | 43.64746 | 22.14063 | 35079 ft | 431 kts | 149° |
| 2026-05-07 14:55 | 43.59870 | 22.18873 | 35078 ft | 431 kts | 149° |
| 2026-05-07 14:55 | 43.54991 | 22.23672 | 35082 ft | 431 kts | 148° |
| 2026-05-07 14:56 | 43.50113 | 22.28462 | 35091 ft | 430 kts | 148° |
| 2026-05-07 14:56 | 43.45230 | 22.33250 | 35068 ft | 431 kts | 148° |
| 2026-05-07 14:57 | 43.40332 | 22.38045 | 35074 ft | 433 kts | 148° |
| 2026-05-07 14:57 | 43.35422 | 22.42838 | 35081 ft | 433 kts | 148° |
| 2026-05-07 14:58 | 43.30502 | 22.47624 | 35087 ft | 433 kts | 149° |
| 2026-05-07 14:58 | 43.25587 | 22.52398 | 35090 ft | 433 kts | 148° |
| 2026-05-07 14:59 | 43.20667 | 22.57174 | 35083 ft | 434 kts | 148° |
| 2026-05-07 14:59 | 43.15736 | 22.61946 | 35085 ft | 434 kts | 148° |
| 2026-05-07 15:00 | 43.10799 | 22.66720 | 35087 ft | 434 kts | 148° |
| 2026-05-07 15:00 | 43.05860 | 22.71490 | 35102 ft | 434 kts | 148° |
| 2026-05-07 15:01 | 43.00895 | 22.76276 | 35095 ft | 434 kts | 149° |
| 2026-05-07 15:01 | 42.96068 | 22.81274 | 35093 ft | 439 kts | 141° |
| 2026-05-07 15:02 | 42.91603 | 22.86957 | 35094 ft | 439 kts | 141° |
| 2026-05-07 15:02 | 42.87123 | 22.92621 | 35098 ft | 440 kts | 141° |
| 2026-05-07 15:03 | 42.82629 | 22.98287 | 35082 ft | 441 kts | 141° |
| 2026-05-07 15:03 | 42.78120 | 23.03969 | 35088 ft | 442 kts | 141° |
| 2026-05-07 15:04 | 42.73607 | 23.09644 | 35103 ft | 442 kts | 141° |
| 2026-05-07 15:04 | 42.69081 | 23.15315 | 35113 ft | 442 kts | 141° |
| 2026-05-07 15:05 | 42.64556 | 23.20987 | 35100 ft | 443 kts | 141° |
| 2026-05-07 15:05 | 42.60015 | 23.26672 | 35105 ft | 444 kts | 141° |
| 2026-05-07 15:06 | 42.55464 | 23.32350 | 35105 ft | 444 kts | 141° |
| 2026-05-07 15:06 | 42.50914 | 23.38015 | 35116 ft | 445 kts | 141° |
| 2026-05-07 15:07 | 42.46286 | 23.43765 | 35107 ft | 456 kts | 141° |
| 2026-05-07 15:07 | 42.41569 | 23.49601 | 35110 ft | 461 kts | 141° |
| 2026-05-07 15:08 | 42.36838 | 23.55444 | 35115 ft | 461 kts | 141° |
| 2026-05-07 15:08 | 42.32071 | 23.61335 | 35117 ft | 461 kts | 141° |
| 2026-05-07 15:09 | 42.27332 | 23.67185 | 35112 ft | 461 kts | 141° |
| 2026-05-07 15:09 | 42.22592 | 23.73013 | 35118 ft | 461 kts | 141° |
| 2026-05-07 15:10 | 42.17844 | 23.78834 | 35114 ft | 461 kts | 141° |
| 2026-05-07 15:10 | 42.13095 | 23.84649 | 35125 ft | 461 kts | 141° |
| 2026-05-07 15:11 | 42.08339 | 23.90448 | 35124 ft | 461 kts | 141° |
| 2026-05-07 15:11 | 42.03575 | 23.96245 | 35120 ft | 461 kts | 141° |
| 2026-05-07 15:12 | 41.98822 | 24.02031 | 35121 ft | 461 kts | 141° |
| 2026-05-07 15:12 | 41.94068 | 24.07806 | 35112 ft | 460 kts | 141° |
| 2026-05-07 15:13 | 41.89315 | 24.13567 | 35117 ft | 461 kts | 141° |
| 2026-05-07 15:13 | 41.84554 | 24.19322 | 35120 ft | 461 kts | 141° |
| 2026-05-07 15:14 | 41.79786 | 24.25060 | 35124 ft | 461 kts | 141° |
| 2026-05-07 15:14 | 41.75014 | 24.30794 | 35116 ft | 461 kts | 141° |
| 2026-05-07 15:15 | 41.70240 | 24.36528 | 35125 ft | 461 kts | 141° |
| 2026-05-07 15:15 | 41.65468 | 24.42270 | 35105 ft | 462 kts | 141° |
| 2026-05-07 15:16 | 41.60632 | 24.48050 | 35108 ft | 463 kts | 141° |
| 2026-05-07 15:16 | 41.55821 | 24.53782 | 35110 ft | 464 kts | 141° |
| 2026-05-07 15:17 | 41.50997 | 24.59520 | 35115 ft | 465 kts | 141° |
| 2026-05-07 15:17 | 41.46166 | 24.65253 | 35111 ft | 465 kts | 141° |
| 2026-05-07 15:18 | 41.41337 | 24.70993 | 35112 ft | 466 kts | 140° |
| 2026-05-07 15:18 | 41.36653 | 24.76973 | 35104 ft | 467 kts | 138° |
| 2026-05-07 15:19 | 41.32077 | 24.83123 | 35117 ft | 467 kts | 137° |
| 2026-05-07 15:19 | 41.27483 | 24.89228 | 35117 ft | 467 kts | 138° |
| 2026-05-07 15:20 | 41.22834 | 24.95264 | 35116 ft | 467 kts | 139° |
| 2026-05-07 15:20 | 41.18173 | 25.01272 | 35121 ft | 466 kts | 138° |
| 2026-05-07 15:21 | 41.13519 | 25.07279 | 35116 ft | 467 kts | 138° |
| 2026-05-07 15:21 | 41.08871 | 25.13291 | 35117 ft | 467 kts | 138° |
| 2026-05-07 15:22 | 41.04215 | 25.19307 | 35115 ft | 467 kts | 138° |
| 2026-05-07 15:22 | 40.99560 | 25.25305 | 35117 ft | 467 kts | 138° |
| 2026-05-07 15:23 | 40.94895 | 25.31288 | 35114 ft | 467 kts | 138° |
| 2026-05-07 15:23 | 40.90191 | 25.37322 | 35101 ft | 469 kts | 138° |
| 2026-05-07 15:24 | 40.85504 | 25.43326 | 35098 ft | 470 kts | 138° |
| 2026-05-07 15:24 | 40.80795 | 25.49335 | 35099 ft | 471 kts | 138° |
| 2026-05-07 15:25 | 40.76075 | 25.55342 | 35107 ft | 472 kts | 138° |
| 2026-05-07 15:25 | 40.71353 | 25.61347 | 35115 ft | 472 kts | 138° |
| 2026-05-07 15:26 | 40.66615 | 25.67356 | 35103 ft | 473 kts | 138° |
| 2026-05-07 15:26 | 40.62668 | 25.72348 | 35097 ft | 474 kts | 138° |
| 2026-05-07 15:27 | 40.57911 | 25.78358 | 35097 ft | 475 kts | 138° |
| 2026-05-07 15:27 | 40.53136 | 25.84379 | 35103 ft | 476 kts | 138° |
| 2026-05-07 15:28 | 40.48488 | 25.90572 | 35107 ft | 477 kts | 133° |
| 2026-05-07 15:28 | 40.44085 | 25.97178 | 35115 ft | 477 kts | 133° |
| 2026-05-07 15:29 | 40.39711 | 26.03736 | 35126 ft | 478 kts | 133° |
| 2026-05-07 15:29 | 40.35318 | 26.10274 | 35123 ft | 478 kts | 133° |
| 2026-05-07 15:30 | 40.30915 | 26.16802 | 35125 ft | 478 kts | 133° |
| 2026-05-07 15:30 | 40.26517 | 26.23330 | 35128 ft | 478 kts | 133° |
| 2026-05-07 15:31 | 40.22110 | 26.29861 | 35131 ft | 479 kts | 133° |
| 2026-05-07 15:31 | 40.17694 | 26.36391 | 35137 ft | 479 kts | 133° |
| 2026-05-07 15:32 | 40.13265 | 26.42899 | 35141 ft | 479 kts | 133° |
| 2026-05-07 15:32 | 40.08631 | 26.49159 | 35145 ft | 479 kts | 137° |
| 2026-05-07 15:33 | 40.03817 | 26.55161 | 35129 ft | 479 kts | 138° |
| 2026-05-07 15:33 | 39.98992 | 26.61184 | 35121 ft | 481 kts | 137° |
| 2026-05-07 15:34 | 39.94212 | 26.67283 | 35114 ft | 482 kts | 136° |
| 2026-05-07 15:34 | 39.89437 | 26.73417 | 35117 ft | 482 kts | 136° |
| 2026-05-07 15:35 | 39.84649 | 26.79541 | 35130 ft | 483 kts | 136° |
| 2026-05-07 15:35 | 39.79848 | 26.85652 | 35137 ft | 483 kts | 137° |
| 2026-05-07 15:36 | 39.75031 | 26.91753 | 35139 ft | 484 kts | 137° |
| 2026-05-07 15:36 | 39.70112 | 26.97796 | 35142 ft | 484 kts | 138° |
| 2026-05-07 15:37 | 39.65197 | 27.03756 | 35139 ft | 484 kts | 137° |
| 2026-05-07 15:37 | 39.60295 | 27.09733 | 35143 ft | 484 kts | 137° |
| 2026-05-07 15:38 | 39.55398 | 27.15723 | 35146 ft | 484 kts | 137° |
| 2026-05-07 15:38 | 39.50503 | 27.21713 | 35138 ft | 484 kts | 135° |
| 2026-05-07 15:39 | 39.46126 | 27.28330 | 35138 ft | 484 kts | 130° |
| 2026-05-07 15:39 | 39.41836 | 27.35038 | 35137 ft | 484 kts | 130° |
| 2026-05-07 15:40 | 39.37543 | 27.41744 | 35134 ft | 484 kts | 130° |
| 2026-05-07 15:40 | 39.33255 | 27.48447 | 35136 ft | 484 kts | 130° |
| 2026-05-07 15:41 | 39.28956 | 27.55154 | 35132 ft | 485 kts | 130° |
| 2026-05-07 15:41 | 39.24643 | 27.61852 | 35137 ft | 485 kts | 130° |
| 2026-05-07 15:42 | 39.20327 | 27.68535 | 35137 ft | 485 kts | 130° |
| 2026-05-07 15:42 | 39.16002 | 27.75215 | 35142 ft | 485 kts | 130° |
| 2026-05-07 15:43 | 39.11681 | 27.81892 | 35135 ft | 485 kts | 130° |
| 2026-05-07 15:43 | 39.07356 | 27.88564 | 35140 ft | 485 kts | 130° |
| 2026-05-07 15:44 | 39.02995 | 27.95263 | 35139 ft | 485 kts | 130° |
| 2026-05-07 15:44 | 38.98663 | 28.01912 | 35142 ft | 485 kts | 130° |
| 2026-05-07 15:45 | 38.94328 | 28.08546 | 35148 ft | 485 kts | 130° |
| 2026-05-07 15:45 | 38.89981 | 28.15178 | 35147 ft | 485 kts | 130° |
| 2026-05-07 15:46 | 38.83453 | 28.25120 | 35148 ft | 486 kts | 131° |
| 2026-05-07 15:47 | 38.79094 | 28.31743 | 35135 ft | 486 kts | 130° |
| 2026-05-07 15:47 | 38.74735 | 28.38362 | 35144 ft | 486 kts | 131° |
| 2026-05-07 15:48 | 38.70358 | 28.44978 | 35143 ft | 487 kts | 131° |
| 2026-05-07 15:48 | 38.65970 | 28.51600 | 35140 ft | 488 kts | 131° |
| 2026-05-07 15:49 | 38.61568 | 28.58224 | 35145 ft | 489 kts | 131° |
| 2026-05-07 15:49 | 38.56854 | 28.64442 | 35143 ft | 487 kts | 143° |
| 2026-05-07 15:50 | 38.51337 | 28.69439 | 35151 ft | 487 kts | 147° |
| 2026-05-07 15:50 | 38.45792 | 28.74410 | 35145 ft | 487 kts | 146° |
| 2026-05-07 15:51 | 38.40244 | 28.79384 | 35154 ft | 487 kts | 147° |
| 2026-05-07 15:51 | 38.34681 | 28.84343 | 35159 ft | 488 kts | 147° |
| 2026-05-07 15:52 | 38.29114 | 28.89282 | 35164 ft | 488 kts | 147° |
| 2026-05-07 15:52 | 38.23513 | 28.94252 | 35173 ft | 488 kts | 147° |
| 2026-05-07 15:53 | 38.17950 | 28.99193 | 35167 ft | 488 kts | 147° |
| 2026-05-07 15:53 | 38.12370 | 29.04139 | 35164 ft | 489 kts | 147° |
| 2026-05-07 15:54 | 38.06786 | 29.09074 | 35169 ft | 489 kts | 147° |
| 2026-05-07 15:54 | 38.01190 | 29.13999 | 35172 ft | 489 kts | 147° |
| 2026-05-07 15:55 | 37.95597 | 29.18922 | 35178 ft | 490 kts | 147° |
| 2026-05-07 15:55 | 37.90006 | 29.23845 | 35187 ft | 490 kts | 147° |
| 2026-05-07 15:56 | 37.84400 | 29.28760 | 35190 ft | 490 kts | 147° |
| 2026-05-07 15:56 | 37.78784 | 29.33668 | 35189 ft | 491 kts | 147° |
| 2026-05-07 15:57 | 37.73161 | 29.38575 | 35195 ft | 491 kts | 147° |
| 2026-05-07 15:57 | 37.67539 | 29.43487 | 35191 ft | 492 kts | 147° |
| 2026-05-07 15:58 | 37.61910 | 29.48389 | 35200 ft | 492 kts | 147° |
| 2026-05-07 15:58 | 37.56272 | 29.53289 | 35204 ft | 492 kts | 147° |
| 2026-05-07 15:59 | 37.50634 | 29.58179 | 35198 ft | 493 kts | 147° |
| 2026-05-07 15:59 | 37.44977 | 29.63076 | 35193 ft | 494 kts | 147° |
| 2026-05-07 16:00 | 37.40230 | 29.67176 | 35193 ft | 494 kts | 147° |
| 2026-05-07 16:00 | 37.34559 | 29.72074 | 35187 ft | 495 kts | 147° |
| 2026-05-07 16:01 | 37.28884 | 29.76969 | 35197 ft | 495 kts | 147° |
| 2026-05-07 16:01 | 37.23201 | 29.81863 | 35201 ft | 495 kts | 147° |
| 2026-05-07 16:02 | 37.17515 | 29.86750 | 35199 ft | 496 kts | 147° |
| 2026-05-07 16:02 | 37.11817 | 29.91636 | 35190 ft | 496 kts | 147° |
| 2026-05-07 16:03 | 37.06118 | 29.96529 | 35185 ft | 497 kts | 146° |
| 2026-05-07 16:03 | 37.00406 | 30.01430 | 35189 ft | 498 kts | 147° |
| 2026-05-07 16:04 | 36.94684 | 30.06313 | 35177 ft | 498 kts | 147° |
| 2026-05-07 16:04 | 36.88951 | 30.11188 | 35182 ft | 498 kts | 147° |
| 2026-05-07 16:05 | 36.83178 | 30.16102 | 35172 ft | 499 kts | 147° |
| 2026-05-07 16:05 | 36.77435 | 30.20985 | 35161 ft | 500 kts | 147° |
| 2026-05-07 16:06 | 36.71671 | 30.25864 | 35163 ft | 501 kts | 147° |
| 2026-05-07 16:06 | 36.65894 | 30.30734 | 35141 ft | 501 kts | 147° |
| 2026-05-07 16:07 | 36.60120 | 30.35609 | 35152 ft | 502 kts | 147° |
| 2026-05-07 16:07 | 36.54336 | 30.40479 | 35144 ft | 502 kts | 147° |
| 2026-05-07 16:08 | 36.48552 | 30.45337 | 35135 ft | 502 kts | 146° |
| 2026-05-07 16:08 | 36.42761 | 30.50194 | 35137 ft | 502 kts | 147° |
| 2026-05-07 16:09 | 36.36965 | 30.55045 | 35131 ft | 503 kts | 147° |
| 2026-05-07 16:09 | 36.31161 | 30.59891 | 35130 ft | 503 kts | 147° |
| 2026-05-07 16:10 | 36.25363 | 30.64731 | 35118 ft | 502 kts | 147° |
| 2026-05-07 16:10 | 36.19575 | 30.69564 | 35124 ft | 502 kts | 147° |
| 2026-05-07 16:11 | 36.13772 | 30.74385 | 35133 ft | 502 kts | 147° |
| 2026-05-07 16:11 | 36.07974 | 30.79193 | 35134 ft | 502 kts | 147° |
| 2026-05-07 16:12 | 36.02169 | 30.84088 | 35137 ft | 502 kts | 144° |
| 2026-05-07 16:12 | 35.96683 | 30.89401 | 35131 ft | 501 kts | 140° |
| 2026-05-07 16:13 | 35.91343 | 30.94938 | 35132 ft | 501 kts | 140° |
| 2026-05-07 16:13 | 35.85949 | 31.00393 | 35132 ft | 502 kts | 141° |
| 2026-05-07 16:14 | 35.80480 | 31.05750 | 35134 ft | 502 kts | 142° |
| 2026-05-07 16:14 | 35.74998 | 31.11085 | 35131 ft | 502 kts | 142° |
| 2026-05-07 16:15 | 35.69519 | 31.16422 | 35127 ft | 502 kts | 142° |
| 2026-05-07 16:15 | 35.64048 | 31.21781 | 35134 ft | 503 kts | 141° |
| 2026-05-07 16:16 | 35.58568 | 31.27132 | 35141 ft | 503 kts | 141° |
| 2026-05-07 16:16 | 35.53078 | 31.32467 | 35139 ft | 503 kts | 141° |
| 2026-05-07 16:17 | 35.47591 | 31.37795 | 35137 ft | 503 kts | 141° |
| 2026-05-07 16:17 | 35.42101 | 31.43136 | 35137 ft | 503 kts | 141° |
| 2026-05-07 16:18 | 35.36610 | 31.48451 | 35132 ft | 503 kts | 141° |
| 2026-05-07 16:18 | 35.31118 | 31.53767 | 35146 ft | 504 kts | 141° |
| 2026-05-07 16:19 | 35.25612 | 31.59080 | 35143 ft | 504 kts | 141° |
| 2026-05-07 16:19 | 35.20064 | 31.64424 | 35143 ft | 504 kts | 141° |
| 2026-05-07 16:20 | 35.14554 | 31.69722 | 35141 ft | 504 kts | 141° |
| 2026-05-07 16:20 | 35.09044 | 31.75021 | 35129 ft | 504 kts | 141° |
| 2026-05-07 16:21 | 35.03536 | 31.80301 | 35145 ft | 504 kts | 141° |
| 2026-05-07 16:21 | 34.98022 | 31.85577 | 35143 ft | 503 kts | 141° |
| 2026-05-07 16:22 | 34.92510 | 31.90836 | 35141 ft | 503 kts | 141° |
| 2026-05-07 16:22 | 34.86994 | 31.96093 | 35141 ft | 503 kts | 141° |
| 2026-05-07 16:23 | 34.81478 | 32.01347 | 35139 ft | 503 kts | 142° |
| 2026-05-07 16:23 | 34.75958 | 32.06588 | 35134 ft | 503 kts | 141° |
| 2026-05-07 16:24 | 34.70444 | 32.11820 | 35136 ft | 503 kts | 141° |
| 2026-05-07 16:24 | 34.64928 | 32.17046 | 35137 ft | 502 kts | 141° |
| 2026-05-07 16:25 | 34.59413 | 32.22256 | 35129 ft | 502 kts | 141° |
| 2026-05-07 16:25 | 34.53894 | 32.27457 | 35129 ft | 502 kts | 141° |
| 2026-05-07 16:26 | 34.48380 | 32.32653 | 35119 ft | 502 kts | 141° |
| 2026-05-07 16:26 | 34.42875 | 32.37843 | 35129 ft | 501 kts | 142° |
| 2026-05-07 16:27 | 34.37377 | 32.42998 | 35131 ft | 499 kts | 142° |
| 2026-05-07 16:27 | 34.31890 | 32.48128 | 35129 ft | 498 kts | 142° |
| 2026-05-07 16:28 | 34.26385 | 32.53280 | 35129 ft | 497 kts | 142° |
| 2026-05-07 16:28 | 34.20918 | 32.58398 | 35132 ft | 497 kts | 142° |
| 2026-05-07 16:29 | 34.15458 | 32.63498 | 35122 ft | 496 kts | 142° |
| 2026-05-07 16:29 | 34.09997 | 32.68583 | 35138 ft | 495 kts | 142° |
| 2026-05-07 16:30 | 34.04247 | 32.73130 | 35137 ft | 494 kts | 149° |
| 2026-05-07 16:30 | 33.98404 | 32.77481 | 35138 ft | 493 kts | 148° |
| 2026-05-07 16:31 | 33.92676 | 32.81752 | 35116 ft | 478 kts | 148° |
| 2026-05-07 16:31 | 33.87021 | 32.85966 | 35116 ft | 480 kts | 148° |
| 2026-05-07 16:32 | 33.81322 | 32.90194 | 35115 ft | 480 kts | 148° |
| 2026-05-07 16:32 | 33.75647 | 32.94398 | 35111 ft | 478 kts | 148° |
| 2026-05-07 16:33 | 33.69977 | 32.98583 | 35113 ft | 478 kts | 148° |
| 2026-05-07 16:33 | 33.65228 | 33.02096 | 35120 ft | 479 kts | 148° |
| 2026-05-07 16:33 | 33.62393 | 33.04192 | 34873 ft | 479 kts | 148° |
| 2026-05-07 16:34 | 33.59522 | 33.06311 | 33922 ft | 488 kts | 148° |
| 2026-05-07 16:34 | 33.56636 | 33.08439 | 33325 ft | 486 kts | 148° |
| 2026-05-07 16:34 | 33.53766 | 33.10552 | 32800 ft | 482 kts | 148° |
| 2026-05-07 16:34 | 33.50915 | 33.12644 | 32259 ft | 479 kts | 149° |
| 2026-05-07 16:35 | 33.48083 | 33.14719 | 31727 ft | 476 kts | 149° |
| 2026-05-07 16:35 | 33.45269 | 33.16781 | 31243 ft | 472 kts | 149° |
| 2026-05-07 16:35 | 33.42487 | 33.18822 | 30769 ft | 467 kts | 149° |
| 2026-05-07 16:35 | 33.39722 | 33.20854 | 30330 ft | 463 kts | 149° |
| 2026-05-07 16:36 | 33.36999 | 33.22857 | 29839 ft | 458 kts | 149° |
| 2026-05-07 16:36 | 33.34280 | 33.24856 | 29202 ft | 457 kts | 149° |
| 2026-05-07 16:36 | 33.31590 | 33.26827 | 28703 ft | 452 kts | 150° |
| 2026-05-07 16:36 | 33.28920 | 33.28782 | 28243 ft | 448 kts | 150° |
| 2026-05-07 16:37 | 33.26281 | 33.30713 | 27788 ft | 443 kts | 150° |
| 2026-05-07 16:37 | 33.23659 | 33.32633 | 27334 ft | 440 kts | 150° |
| 2026-05-07 16:37 | 33.21063 | 33.34533 | 26890 ft | 437 kts | 150° |
| 2026-05-07 16:37 | 33.18475 | 33.36421 | 26437 ft | 434 kts | 150° |
| 2026-05-07 16:38 | 33.15904 | 33.38290 | 25993 ft | 432 kts | 150° |
| 2026-05-07 16:38 | 33.13338 | 33.40150 | 25519 ft | 431 kts | 150° |
| 2026-05-07 16:38 | 33.10775 | 33.42007 | 25045 ft | 430 kts | 150° |
| 2026-05-07 16:38 | 33.08223 | 33.43856 | 24667 ft | 427 kts | 150° |
| 2026-05-07 16:39 | 33.05678 | 33.45701 | 24169 ft | 428 kts | 150° |
| 2026-05-07 16:39 | 33.03125 | 33.47557 | 23903 ft | 422 kts | 150° |
| 2026-05-07 16:39 | 33.00623 | 33.49381 | 23471 ft | 421 kts | 150° |
| 2026-05-07 16:39 | 32.98165 | 33.51169 | 23012 ft | 418 kts | 150° |
| 2026-05-07 16:40 | 32.95657 | 33.52987 | 22576 ft | 416 kts | 150° |
| 2026-05-07 16:40 | 32.93195 | 33.54768 | 22139 ft | 413 kts | 150° |
| 2026-05-07 16:40 | 32.90747 | 33.56536 | 21700 ft | 410 kts | 150° |
| 2026-05-07 16:40 | 32.88313 | 33.58290 | 21257 ft | 408 kts | 150° |
| 2026-05-07 16:41 | 32.85895 | 33.60031 | 20810 ft | 405 kts | 150° |
| 2026-05-07 16:41 | 32.83498 | 33.61778 | 20370 ft | 403 kts | 147° |
| 2026-05-07 16:41 | 32.81354 | 33.63896 | 19936 ft | 401 kts | 134° |
| 2026-05-07 16:41 | 32.79428 | 33.66281 | 19488 ft | 399 kts | 134° |
| 2026-05-07 16:42 | 32.77520 | 33.68642 | 18918 ft | 393 kts | 134° |
| 2026-05-07 16:42 | 32.75635 | 33.70974 | 18122 ft | 390 kts | 134° |
| 2026-05-07 16:42 | 32.73768 | 33.73279 | 17347 ft | 383 kts | 134° |
| 2026-05-07 16:42 | 32.71920 | 33.75557 | 16906 ft | 380 kts | 134° |
| 2026-05-07 16:43 | 32.70091 | 33.77805 | 16459 ft | 378 kts | 134° |
| 2026-05-07 16:43 | 32.68274 | 33.80034 | 16029 ft | 375 kts | 134° |
| 2026-05-07 16:43 | 32.66473 | 33.82247 | 15651 ft | 371 kts | 134° |
| 2026-05-07 16:43 | 32.64686 | 33.84445 | 15276 ft | 367 kts | 135° |
| 2026-05-07 16:44 | 32.62917 | 33.86623 | 14822 ft | 366 kts | 135° |
| 2026-05-07 16:44 | 32.61168 | 33.88776 | 14501 ft | 360 kts | 135° |
| 2026-05-07 16:44 | 32.59433 | 33.90911 | 14080 ft | 358 kts | 135° |
| 2026-05-07 16:44 | 32.57708 | 33.93030 | 13665 ft | 356 kts | 135° |
| 2026-05-07 16:45 | 32.55995 | 33.95130 | 13240 ft | 353 kts | 135° |
| 2026-05-07 16:45 | 32.54300 | 33.97221 | 12825 ft | 350 kts | 135° |
| 2026-05-07 16:45 | 32.52637 | 33.99293 | 12512 ft | 344 kts | 135° |
| 2026-05-07 16:45 | 32.51012 | 34.01334 | 12258 ft | 337 kts | 135° |
| 2026-05-07 16:46 | 32.49420 | 34.03337 | 12033 ft | 330 kts | 135° |
| 2026-05-07 16:46 | 32.47856 | 34.05297 | 11791 ft | 324 kts | 135° |
| 2026-05-07 16:46 | 32.46316 | 34.07219 | 11560 ft | 319 kts | 135° |
| 2026-05-07 16:46 | 32.44786 | 34.09119 | 11332 ft | 318 kts | 135° |
| 2026-05-07 16:47 | 32.43410 | 34.11167 | 11106 ft | 319 kts | 122° |
| 2026-05-07 16:47 | 32.42497 | 34.13578 | 10854 ft | 318 kts | 107° |
| 2026-05-07 16:47 | 32.42016 | 34.16098 | 10608 ft | 318 kts | 102° |
| 2026-05-07 16:47 | 32.41558 | 34.18682 | 10359 ft | 315 kts | 102° |
| 2026-05-07 16:48 | 32.41106 | 34.21203 | 10112 ft | 312 kts | 102° |
| 2026-05-07 16:48 | 32.40653 | 34.23706 | 9846 ft | 311 kts | 103° |
| 2026-05-07 16:48 | 32.40200 | 34.26191 | 9592 ft | 308 kts | 102° |
| 2026-05-07 16:48 | 32.39752 | 34.28657 | 9353 ft | 304 kts | 102° |
| 2026-05-07 16:49 | 32.39312 | 34.31095 | 9114 ft | 303 kts | 102° |
| 2026-05-07 16:49 | 32.38873 | 34.33538 | 8938 ft | 304 kts | 102° |
| 2026-05-07 16:49 | 32.38435 | 34.35972 | 8830 ft | 302 kts | 102° |
| 2026-05-07 16:49 | 32.37999 | 34.38387 | 8713 ft | 299 kts | 102° |
| 2026-05-07 16:50 | 32.37562 | 34.40797 | 8591 ft | 299 kts | 102° |
| 2026-05-07 16:50 | 32.37123 | 34.43212 | 8474 ft | 300 kts | 102° |
| 2026-05-07 16:50 | 32.36687 | 34.45618 | 8357 ft | 299 kts | 102° |
| 2026-05-07 16:50 | 32.36255 | 34.47999 | 8232 ft | 296 kts | 102° |
| 2026-05-07 16:51 | 32.35795 | 34.50374 | 8111 ft | 296 kts | 108° |
| 2026-05-07 16:51 | 32.34966 | 34.52598 | 8006 ft | 296 kts | 122° |
| 2026-05-07 16:51 | 32.33716 | 34.54506 | 7936 ft | 294 kts | 135° |
| 2026-05-07 16:51 | 32.32295 | 34.56233 | 7882 ft | 293 kts | 135° |
| 2026-05-07 16:52 | 32.30883 | 34.57960 | 7755 ft | 291 kts | 135° |
| 2026-05-07 16:52 | 32.29474 | 34.59685 | 7637 ft | 293 kts | 135° |
| 2026-05-07 16:52 | 32.28066 | 34.61409 | 7516 ft | 291 kts | 135° |
| 2026-05-07 16:52 | 32.26656 | 34.63137 | 7393 ft | 292 kts | 135° |
| 2026-05-07 16:53 | 32.25247 | 34.64865 | 7274 ft | 291 kts | 134° |
| 2026-05-07 16:53 | 32.23850 | 34.66577 | 7153 ft | 289 kts | 134° |
| 2026-05-07 16:53 | 32.22456 | 34.68288 | 7030 ft | 288 kts | 135° |
| 2026-05-07 16:53 | 32.21070 | 34.69985 | 6999 ft | 288 kts | 135° |
| 2026-05-07 16:54 | 32.19677 | 34.71688 | 6873 ft | 288 kts | 135° |
| 2026-05-07 16:54 | 32.18281 | 34.73391 | 6753 ft | 287 kts | 134° |
| 2026-05-07 16:54 | 32.16897 | 34.75083 | 6631 ft | 285 kts | 135° |
| 2026-05-07 16:54 | 32.15631 | 34.76880 | 6513 ft | 286 kts | 123° |
| 2026-05-07 16:55 | 32.14727 | 34.78963 | 6387 ft | 285 kts | 115° |
| 2026-05-07 16:55 | 32.13899 | 34.81084 | 6264 ft | 283 kts | 115° |
| 2026-05-07 16:55 | 32.13057 | 34.83217 | 6138 ft | 284 kts | 115° |
| 2026-05-07 16:55 | 32.12224 | 34.85321 | 6008 ft | 284 kts | 115° |
| 2026-05-07 16:56 | 32.11391 | 34.87426 | 5973 ft | 281 kts | 115° |
| 2026-05-07 16:56 | 32.10557 | 34.89532 | 6007 ft | 284 kts | 115° |
| 2026-05-07 16:56 | 32.08888 | 34.93736 | 6011 ft | 284 kts | 115° |
| 2026-05-07 16:57 | 32.08051 | 34.95839 | 6009 ft | 284 kts | 115° |
| 2026-05-07 16:57 | 32.07211 | 34.97953 | 6010 ft | 284 kts | 115° |
| 2026-05-07 16:57 | 32.06376 | 35.00060 | 6006 ft | 283 kts | 116° |
| 2026-05-07 16:57 | 32.05546 | 35.02157 | 6010 ft | 282 kts | 116° |
| 2026-05-07 16:58 | 32.04716 | 35.04250 | 5990 ft | 283 kts | 116° |
| 2026-05-07 16:58 | 32.03886 | 35.06345 | 5864 ft | 282 kts | 117° |
| 2026-05-07 16:58 | 32.03055 | 35.08436 | 5737 ft | 281 kts | 116° |
| 2026-05-07 16:58 | 32.02228 | 35.10520 | 5612 ft | 281 kts | 116° |
| 2026-05-07 16:59 | 32.01419 | 35.12564 | 5482 ft | 267 kts | 117° |
| 2026-05-07 16:59 | 32.00561 | 35.14411 | 5357 ft | 247 kts | 130° |
| 2026-05-07 16:59 | 31.99334 | 35.15696 | 5241 ft | 229 kts | 153° |
| 2026-05-07 16:59 | 31.97898 | 35.16344 | 5115 ft | 215 kts | 173° |
| 2026-05-07 17:00 | 31.96433 | 35.16421 | 4994 ft | 209 kts | 184° |
| 2026-05-07 17:00 | 31.94981 | 35.16367 | 4869 ft | 207 kts | 190° |
| 2026-05-07 17:00 | 31.93587 | 35.15995 | 4740 ft | 205 kts | 198° |
| 2026-05-07 17:00 | 31.92204 | 35.15559 | 4616 ft | 206 kts | 197° |
| 2026-05-07 17:01 | 31.90841 | 35.15030 | 4487 ft | 205 kts | 215° |
| 2026-05-07 17:01 | 31.89889 | 35.13845 | 4343 ft | 200 kts | 247° |
| 2026-05-07 17:01 | 31.89639 | 35.12266 | 4252 ft | 199 kts | 272° |
| 2026-05-07 17:01 | 31.89674 | 35.10640 | 4089 ft | 197 kts | 272° |
| 2026-05-07 17:02 | 31.89849 | 35.09042 | 3890 ft | 197 kts | 291° |
| 2026-05-07 17:02 | 31.90501 | 35.07632 | 3806 ft | 199 kts | 302° |
| 2026-05-07 17:02 | 31.91225 | 35.06244 | 3564 ft | 198 kts | 302° |
| 2026-05-07 17:02 | 31.91944 | 35.04862 | 3312 ft | 197 kts | 303° |
| 2026-05-07 17:03 | 31.92657 | 35.03496 | 3029 ft | 193 kts | 304° |
| 2026-05-07 17:03 | 31.93362 | 35.02145 | 2785 ft | 189 kts | 303° |
| 2026-05-07 17:03 | 31.94048 | 35.00831 | 2495 ft | 187 kts | 304° |
| 2026-05-07 17:03 | 31.94709 | 34.99564 | 2230 ft | 176 kts | 303° |
| 2026-05-07 17:04 | 31.95329 | 34.98374 | 1977 ft | 164 kts | 306° |
| 2026-05-07 17:04 | 31.95892 | 34.97292 | 1767 ft | 148 kts | 307° |
| 2026-05-07 17:04 | 31.96422 | 34.96278 | 1557 ft | 144 kts | 307° |
| 2026-05-07 17:04 | 31.96938 | 34.95288 | 1360 ft | 141 kts | 307° |
| 2026-05-07 17:05 | 31.97445 | 34.94315 | 1167 ft | 138 kts | 308° |
| 2026-05-07 17:05 | 31.97950 | 34.93358 | 970 ft | 138 kts | 307° |
| 2026-05-07 17:05 | 31.98447 | 34.92407 | 788 ft | 136 kts | 308° |
| 2026-05-07 17:05 | 31.98948 | 34.91451 | 589 ft | 137 kts | 307° |
| 2026-05-07 17:06 | 31.99270 | 34.90823 | 454 ft | 134 kts | 307° |
| 2026-05-07 17:06 | 31.99756 | 34.89892 | 266 ft | 133 kts | 306° |
| 2026-05-07 17:06 | 32.00237 | 34.88962 | 124 ft | 127 kts | 305° |
| 2026-05-07 17:06 | 32.00617 | 34.88231 | 118 ft | 80 kts | 301° |
| 2026-05-07 17:07 | 32.00834 | 34.87810 | 118 ft | 50 kts | 301° |
| 2026-05-07 17:07 | 32.00988 | 34.87511 | 120 ft | 32 kts | 300° |
| 2026-05-07 17:07 | 32.01053 | 34.87310 | 121 ft | 25 kts | 282° |
| 2026-05-07 17:07 | 32.01064 | 34.87123 | 120 ft | 16 kts | 271° |
| 2026-05-07 17:08 | 32.01020 | 34.87047 | 120 ft | 11 kts | 175° |
| 2026-05-07 17:08 | 32.00985 | 34.87092 | 119 ft | 0 kts | 121° |
| 2026-05-07 17:08 | 32.00979 | 34.87105 | 119 ft | 5 kts | 121° |
| 2026-05-07 17:09 | 32.00955 | 34.87150 | 120 ft | 8 kts | 121° |
| 2026-05-07 17:09 | 32.00925 | 34.87209 | 120 ft | 10 kts | 121° |
| 2026-05-07 17:09 | 32.00886 | 34.87284 | 119 ft | 12 kts | 121° |
| 2026-05-07 17:09 | 32.00841 | 34.87368 | 120 ft | 12 kts | 122° |
| 2026-05-07 17:10 | 32.00793 | 34.87462 | 117 ft | 16 kts | 121° |
| 2026-05-07 17:10 | 32.00726 | 34.87597 | 119 ft | 21 kts | 121° |
| 2026-05-07 17:10 | 32.00649 | 34.87745 | 117 ft | 16 kts | 122° |
| 2026-05-07 17:10 | 32.00583 | 34.87868 | 118 ft | 17 kts | 122° |
| 2026-05-07 17:11 | 32.00519 | 34.87955 | 119 ft | 14 kts | 166° |
| 2026-05-07 17:11 | 32.00415 | 34.87895 | 120 ft | 15 kts | 211° |
| 2026-05-07 17:11 | 32.00344 | 34.87844 | 118 ft | 9 kts | 211° |
| 2026-05-07 17:11 | 32.00301 | 34.87816 | 118 ft | 5 kts | 193° |
| 2026-05-07 17:12 | 32.00272 | 34.87846 | 120 ft | 7 kts | 122° |
| 2026-05-07 17:12 | 32.00256 | 34.87878 | 118 ft | 5 kts | 121° |
| 2026-05-07 17:12 | 32.00252 | 34.87885 | 119 ft | 0 kts | 121° |